Main page
Satellite images 10-day forecastsClimateMarine weather Cyclones Lightning AirportsFAQ Newsletter About
Weather : Europe Africa North America South America Asia Australia-Oceania Others
Languages Contact

Milan, Italy

Malpensa Airport

latitude: 45-37N, longitude: 008-44E, elevation: 234 m


METAR: LIMC 260220Z 23003KT 9999 SCT030 BKN070 14/14 Q1009 NOSIG
TAF: LIMC 252333Z 2600/2706 VRB05KT 9999 SCT030 SCT060 TEMPO 2600/2609 TSRA

Time: 05:19 (03:19 UTC)

Current weather observation

The report was made 59 minutes ago, at 02:20 UTC
Wind 3 kt from the Southwest
Temperature 14°C
Humidity 100%
Pressure 1009 hPa
Visibility 10 km or more
Scattered clouds at a height of 3000 ft
Broken clouds at a height of 7000 ft

Change units

Forecast

The report was made 3 hours and 46 minutes ago, at 23:33 UTC
Forecast valid from 26 at 00 UTC to 27 at 06 UTC
Wind 5 kt from variable directions
Visibility 10 km or more
Scattered clouds at a height of 3000 ft
Scattered clouds at a height of 6000 ft
Temporary
from 26 at 00 UTC to 26 at 09 UTC
thunderstorm, rain
The information on this site is subject to a disclaimer
Weather : Europe Africa North America South America Asia Australia-Oceania Others
Satellite images 10-day forecastsClimateMarine weather Cyclones Lightning AirportsFAQ Languages Contact Newsletter About